Time;durP1;ratioP1;P1;durP2;ratioP2;P2;SDS_P1;SDS_P2;PMS_P1;PMS_P2;Temp;Humidity;BMP_temperature;BMP_pressure;BME280_temperature;BME280_humidity;BME280_pressure;Samples;Min_cycle;Max_cycle;Signal;HPM_P1;HPM_P2
2023/01/29 00:00:31;;;;;;;;;42.00;39.25;;;;;4.76;84.88;102650.88;5102122;27;45637;-78
2023/01/29 00:02:57;;;;;;;;;53.00;42.00;;;;;4.70;84.90;102649.41;5101649;27;46348;-78
2023/01/29 00:05:22;;;;;;;;;56.00;44.75;;;;;4.66;85.41;102642.63;5102099;27;45337;-79
2023/01/29 00:07:47;;;;;;;;;50.50;41.50;;;;;4.60;84.91;102635.06;5102784;27;45630;-78
2023/01/29 00:10:13;;;;;;;;;62.00;50.25;;;;;4.46;85.64;102630.59;5101891;27;45328;-79
2023/01/29 00:12:38;;;;;;;;;54.75;43.75;;;;;4.44;85.48;102632.47;5101325;27;46128;-78
2023/01/29 00:15:05;;;;;;;;;55.25;42.25;;;;;4.38;85.85;102628.41;5097251;27;46248;-78
2023/01/29 00:17:30;;;;;;;;;52.00;43.50;;;;;4.31;85.91;102621.78;5097934;27;45422;-78
2023/01/29 00:19:55;;;;;;;;;58.75;47.00;;;;;4.31;86.19;102627.06;5101667;27;45614;-78
2023/01/29 00:22:21;;;;;;;;;57.25;47.25;;;;;4.27;87.41;102635.13;5101370;27;45268;-78
2023/01/29 00:24:46;;;;;;;;;58.00;49.25;;;;;4.25;87.54;102633.53;5096421;27;45307;-78
2023/01/29 00:27:11;;;;;;;;;59.00;49.25;;;;;4.17;87.33;102629.50;5097724;27;45407;-78
2023/01/29 00:29:37;;;;;;;;;59.25;45.50;;;;;4.15;88.24;102623.50;5101603;27;45558;-78
2023/01/29 00:32:02;;;;;;;;;59.50;46.25;;;;;4.09;88.62;102618.56;5101336;27;45327;-79
2023/01/29 00:34:27;;;;;;;;;59.50;46.25;;;;;4.09;88.86;102622.97;5101730;27;45242;-78
2023/01/29 00:37:05;;;;;;;;;58.50;46.75;;;;;3.92;89.80;102622.97;5101557;27;45397;-78
2023/01/29 00:39:37;;;;;;;;;55.50;44.00;;;;;3.96;89.47;102621.03;5096927;27;47433;-78
2023/01/29 00:44:59;;;;;;;;;61.50;47.50;;;;;4.00;90.31;102619.06;5101260;27;45330;-77
2023/01/29 00:47:32;;;;;;;;;54.00;45.75;;;;;3.98;90.25;102623.59;5101590;27;45444;-78
2023/01/29 00:49:59;;;;;;;;;57.75;44.75;;;;;4.03;89.83;102629.44;5100751;27;45491;-78
2023/01/29 00:52:25;;;;;;;;;52.50;41.75;;;;;3.98;90.40;102628.84;5100057;27;45387;-77
2023/01/29 00:54:52;;;;;;;;;52.25;45.75;;;;;3.96;89.85;102643.84;5101037;27;45391;-77
2023/01/29 00:57:17;;;;;;;;;57.25;48.25;;;;;3.92;90.24;102637.91;5101090;27;45323;-77
2023/01/29 00:59:42;;;;;;;;;54.25;42.50;;;;;3.94;90.26;102629.91;5100891;27;45274;-77
2023/01/29 01:04:51;;;;;;;;;58.00;47.25;;;;;3.81;89.79;102622.72;5101072;27;45395;-76
2023/01/29 01:07:17;;;;;;;;;60.00;45.25;;;;;3.99;89.95;102626.13;5102017;27;45454;-76
2023/01/29 01:12:27;;;;;;;;;42.75;39.75;;;;;4.00;89.12;102614.66;5100872;27;45785;-77
2023/01/29 01:14:52;;;;;;;;;56.75;43.25;;;;;3.97;88.92;102609.56;5100834;27;45283;-76
2023/01/29 01:17:17;;;;;;;;;49.00;39.25;;;;;3.97;89.29;102613.97;5099655;27;45365;-77
2023/01/29 01:19:43;;;;;;;;;55.50;46.50;;;;;3.76;89.61;102611.59;5101068;27;45644;-77
2023/01/29 01:22:08;;;;;;;;;64.75;51.75;;;;;3.70;90.05;102617.16;5100336;27;45467;-77
2023/01/29 01:24:34;;;;;;;;;59.25;47.75;;;;;3.68;90.31;102619.06;5099197;27;45179;-76
2023/01/29 01:26:59;;;;;;;;;59.75;45.00;;;;;3.65;91.70;102623.53;5100614;27;45289;-76
2023/01/29 01:29:24;;;;;;;;;55.50;45.00;;;;;3.62;91.42;102609.72;5095774;27;45947;-77
2023/01/29 01:31:52;;;;;;;;;51.50;41.25;;;;;3.65;91.73;102626.16;5093786;27;46175;-77
2023/01/29 01:34:18;;;;;;;;;56.00;43.75;;;;;3.60;91.93;102615.06;5100727;27;45353;-77
2023/01/29 01:36:43;;;;;;;;;56.75;45.00;;;;;3.63;92.62;102616.66;5100249;27;45400;-77
2023/01/29 01:39:08;;;;;;;;;53.50;43.25;;;;;3.60;92.46;102619.44;5100621;27;45384;-77
2023/01/29 01:41:34;;;;;;;;;58.00;45.25;;;;;3.57;92.13;102627.50;5100529;27;45378;-77
2023/01/29 01:44:01;;;;;;;;;53.75;46.00;;;;;3.57;92.48;102623.09;5100394;27;45400;-77
2023/01/29 01:46:36;;;;;;;;;48.75;42.00;;;;;3.59;93.14;102623.03;5100517;27;45236;-77
2023/01/29 01:49:15;;;;;;;;;54.25;44.25;;;;;3.54;92.48;102629.34;5100451;27;45340;-77
2023/01/29 01:51:47;;;;;;;;;66.50;50.75;;;;;3.52;92.65;102622.47;5095095;27;47055;-77
2023/01/29 01:54:25;;;;;;;;;47.00;42.00;;;;;3.46;92.39;102615.78;5091681;27;45436;-77
2023/01/29 01:57:03;;;;;;;;;61.25;46.75;;;;;3.50;92.18;102630.44;5078619;27;45303;-77
2023/01/29 01:59:32;;;;;;;;;56.00;42.25;;;;;3.46;92.03;102625.44;5093394;27;46405;-77
2023/01/29 02:01:58;;;;;;;;;52.00;44.50;;;;;3.46;92.99;102636.81;5100132;27;46069;-77
2023/01/29 02:10:08;;;;;;;;;57.75;44.00;;;;;3.38;92.77;102628.50;5099342;27;45474;-77
2023/01/29 02:12:35;;;;;;;;;50.25;44.00;;;;;3.33;93.08;102625.22;5099483;27;46369;-77
2023/01/29 02:15:01;;;;;;;;;52.00;43.00;;;;;3.22;94.19;102625.78;5090276;27;45505;-77
2023/01/29 02:17:26;;;;;;;;;60.25;47.75;;;;;3.28;93.71;102618.44;5094709;27;45363;-77
2023/01/29 02:20:14;;;;;;;;;57.75;44.00;;;;;3.30;94.23;102626.25;5099853;27;45546;-77
2023/01/29 02:23:26;;;;;;;;;56.25;44.00;;;;;3.24;94.96;102618.69;5096990;27;47105;-76
2023/01/29 02:26:25;;;;;;;;;57.25;46.25;;;;;3.27;93.57;102627.25;5099767;27;45367;-77
2023/01/29 02:29:21;;;;;;;;;45.50;42.00;;;;;3.25;94.46;102634.38;5094662;27;45593;-77
2023/01/29 02:31:51;;;;;;;;;59.75;49.00;;;;;3.18;94.24;102627.72;5093646;27;45295;-77
2023/01/29 02:34:25;;;;;;;;;60.75;49.50;;;;;3.20;94.60;102632.91;5099802;27;45515;-76
2023/01/29 02:37:03;;;;;;;;;53.50;45.50;;;;;3.18;93.85;102629.50;5099089;27;45379;-77
2023/01/29 02:39:50;;;;;;;;;54.00;44.00;;;;;3.15;94.26;102641.84;5098348;27;45418;-77
2023/01/29 02:42:26;;;;;;;;;73.00;53.25;;;;;3.09;94.91;102633.44;5086411;27;45227;-77
2023/01/29 02:45:23;;;;;;;;;60.00;50.25;;;;;3.06;95.25;102637.09;5097835;27;48491;-77
2023/01/29 02:47:58;;;;;;;;;59.25;50.50;;;;;2.98;94.45;102626.97;5097821;27;45406;-77
2023/01/29 02:50:42;;;;;;;;;60.25;48.75;;;;;3.26;93.14;102625.53;5099403;27;45401;-77
2023/01/29 02:53:40;;;;;;;;;45.75;40.25;;;;;3.32;92.93;102626.19;5097870;27;47633;-77
2023/01/29 02:56:14;;;;;;;;;59.50;47.25;;;;;2.99;94.22;102617.31;5099292;27;45399;-77
2023/01/29 02:58:49;;;;;;;;;51.50;44.75;;;;;2.93;93.91;102618.44;5099419;27;45358;-77
2023/01/29 03:01:29;;;;;;;;;51.75;40.50;;;;;2.93;94.47;102612.38;5098092;27;45427;-77
2023/01/29 03:04:01;;;;;;;;;58.00;45.50;;;;;2.90;94.60;102610.72;5099485;27;45445;-77
2023/01/29 03:06:32;;;;;;;;;43.00;41.75;;;;;2.85;94.79;102610.13;5099389;27;46201;-77
2023/01/29 03:09:01;;;;;;;;;55.00;43.25;;;;;2.81;95.74;102598.91;5099115;27;45349;-77
2023/01/29 03:11:33;;;;;;;;;51.50;45.75;;;;;2.86;95.42;102598.69;5098017;27;45338;-77
2023/01/29 03:14:05;;;;;;;;;54.25;44.75;;;;;2.85;95.29;102600.47;5097393;27;46227;-77
2023/01/29 03:16:46;;;;;;;;;58.50;49.00;;;;;2.83;94.91;102610.19;5099156;27;46708;-77
2023/01/29 03:19:24;;;;;;;;;61.75;50.00;;;;;2.79;95.37;102606.03;5097339;27;45354;-77
2023/01/29 03:22:00;;;;;;;;;70.75;53.50;;;;;2.76;95.14;102604.38;5101179;27;45289;-78
2023/01/29 03:33:17;;;;;;;;;63.75;52.75;;;;;2.69;96.29;102592.50;5101496;27;45474;-77
2023/01/29 03:35:52;;;;;;;;;53.50;43.00;;;;;2.61;96.74;102587.63;5102594;27;46126;-77
2023/01/29 03:38:18;;;;;;;;;53.25;44.75;;;;;2.67;96.25;102583.00;5101993;27;46062;-77
2023/01/29 03:40:59;;;;;;;;;62.00;50.50;;;;;2.99;95.61;102588.41;5102671;27;45333;-77
2023/01/29 03:43:43;;;;;;;;;50.50;43.25;;;;;2.71;96.36;102597.66;5102150;27;45393;-77
2023/01/29 03:46:50;;;;;;;;;65.75;51.50;;;;;2.72;95.59;102600.22;5097535;27;47569;-77
2023/01/29 03:49:34;;;;;;;;;61.75;48.50;;;;;2.67;95.84;102594.38;5100051;27;46419;-77
2023/01/29 03:52:17;;;;;;;;;60.25;47.25;;;;;2.63;96.82;102591.03;5099659;27;45401;-77
2023/01/29 03:55:09;;;;;;;;;62.25;50.50;;;;;2.59;96.05;102600.00;5089532;27;45491;-77
2023/01/29 03:57:49;;;;;;;;;58.25;49.50;;;;;2.63;96.79;102604.16;5100802;27;47413;-77
2023/01/29 04:00:21;;;;;;;;;54.00;41.00;;;;;2.50;96.14;102600.44;5090057;27;45401;-77
2023/01/29 04:02:54;;;;;;;;;64.00;50.75;;;;;2.52;96.75;102606.47;5101864;27;45333;-77
2023/01/29 04:05:24;;;;;;;;;53.25;44.25;;;;;2.42;96.70;102599.97;5101010;27;45941;-77
2023/01/29 04:07:58;;;;;;;;;60.75;51.75;;;;;2.35;96.96;102608.13;5101460;27;47252;-77
2023/01/29 04:10:26;;;;;;;;;59.50;49.75;;;;;2.62;97.43;102599.84;5100530;27;47203;-77
2023/01/29 04:13:01;;;;;;;;;63.50;50.00;;;;;2.37;97.11;102616.78;5097091;27;45355;-78
2023/01/29 04:15:30;;;;;;;;;55.50;44.00;;;;;2.32;96.60;102617.91;5094451;27;45332;-77
2023/01/29 04:17:56;;;;;;;;;61.75;47.00;;;;;2.27;97.61;102610.25;5101712;27;45654;-77
2023/01/29 04:20:22;;;;;;;;;52.00;44.25;;;;;2.30;96.81;102614.53;5101792;27;46344;-77
2023/01/29 04:22:51;;;;;;;;;59.75;50.50;;;;;2.25;97.08;102612.13;5087993;27;45432;-78
2023/01/29 04:25:28;;;;;;;;;62.50;50.25;;;;;2.18;97.04;102594.97;5101710;27;45357;-77
2023/01/29 04:28:00;;;;;;;;;63.00;51.75;;;;;2.21;97.67;102603.53;5100480;27;45632;-77
2023/01/29 04:31:15;;;;;;;;;52.50;46.00;;;;;2.20;97.59;102598.38;5101391;27;45375;-78
2023/01/29 04:34:22;;;;;;;;;55.00;45.25;;;;;2.12;97.53;102594.34;5097779;27;46061;-78
2023/01/29 04:37:12;;;;;;;;;58.00;45.50;;;;;2.14;97.97;102600.38;5101219;27;45391;-77
2023/01/29 04:39:48;;;;;;;;;51.25;44.50;;;;;2.17;97.68;102598.50;5096965;27;46381;-77
2023/01/29 04:42:43;;;;;;;;;50.00;43.75;;;;;2.10;98.41;102600.59;5099811;27;48102;-77
2023/01/29 04:45:19;;;;;;;;;51.25;41.50;;;;;2.09;98.54;102610.22;5099827;27;45424;-77
2023/01/29 04:47:54;;;;;;;;;50.00;45.00;;;;;2.07;99.06;102613.84;5100351;27;45366;-77
2023/01/29 04:50:36;;;;;;;;;59.25;47.25;;;;;2.04;98.88;102620.09;5088301;27;45309;-77
2023/01/29 04:53:14;;;;;;;;;56.00;44.25;;;;;2.04;98.29;102617.47;5100952;27;46348;-77
2023/01/29 04:55:50;;;;;;;;;62.75;49.50;;;;;2.31;98.60;102626.72;5096680;27;45445;-77
2023/01/29 04:58:31;;;;;;;;;54.00;44.75;;;;;2.07;97.95;102624.34;5099545;27;45339;-77
2023/01/29 05:00:57;;;;;;;;;62.00;48.50;;;;;2.01;98.09;102621.06;5101167;27;45313;-77
2023/01/29 05:03:26;;;;;;;;;60.00;48.50;;;;;2.05;97.81;102626.16;5101174;27;46227;-77
2023/01/29 05:05:54;;;;;;;;;60.25;46.00;;;;;1.98;98.05;102626.44;5086870;27;45364;-78
2023/01/29 05:08:23;;;;;;;;;56.25;47.00;;;;;1.95;99.17;102625.75;5101221;27;45268;-77
2023/01/29 05:10:51;;;;;;;;;57.00;44.75;;;;;1.90;98.75;102623.34;5100870;27;45344;-77
2023/01/29 05:13:19;;;;;;;;;57.50;44.75;;;;;1.93;99.00;102620.59;5091891;27;45315;-77
2023/01/29 05:16:15;;;;;;;;;48.50;42.25;;;;;1.97;98.99;102616.88;5094647;27;46097;-77
2023/01/29 05:18:41;;;;;;;;;58.50;44.75;;;;;1.95;98.71;102613.47;5100844;27;45459;-77
2023/01/29 05:21:08;;;;;;;;;53.50;46.25;;;;;1.97;98.86;102616.03;5100533;27;45530;-77
2023/01/29 05:23:34;;;;;;;;;61.25;45.50;;;;;1.93;98.62;102603.97;5100715;27;46781;-77
2023/01/29 05:26:00;;;;;;;;;43.25;39.25;;;;;1.96;98.89;102609.09;5100829;27;45360;-77
2023/01/29 05:28:25;;;;;;;;;46.75;41.25;;;;;1.97;98.11;102613.41;5100861;27;45302;-77
2023/01/29 05:30:53;;;;;;;;;46.25;42.00;;;;;1.93;98.36;102599.59;5100442;27;45313;-77
2023/01/29 05:33:27;;;;;;;;;43.25;41.00;;;;;1.87;98.88;102597.25;5096618;27;48251;-77
2023/01/29 05:35:54;;;;;;;;;50.75;45.00;;;;;1.82;98.59;102597.47;5099056;27;45275;-77
2023/01/29 05:38:20;;;;;;;;;48.50;41.75;;;;;1.86;99.20;102596.41;5098011;27;45342;-77
2023/01/29 05:40:46;;;;;;;;;53.75;44.75;;;;;1.82;98.90;102592.22;5100429;27;45443;-77
2023/01/29 05:43:18;;;;;;;;;48.75;40.50;;;;;1.85;98.84;102599.94;5099285;27;46830;-77
2023/01/29 05:45:52;;;;;;;;;52.50;45.00;;;;;1.86;99.07;102601.66;5095784;27;45455;-78
2023/01/29 05:48:17;;;;;;;;;46.50;40.75;;;;;1.80;99.86;102601.09;5098044;27;45309;-77
2023/01/29 05:50:43;;;;;;;;;56.00;48.75;;;;;1.84;100.00;102614.00;5100155;27;45531;-77
2023/01/29 05:53:08;;;;;;;;;52.25;45.00;;;;;1.85;100.00;102606.97;5099817;27;46007;-77
2023/01/29 05:55:33;;;;;;;;;46.50;41.25;;;;;1.83;100.00;102603.56;5100511;27;45239;-77
2023/01/29 05:57:59;;;;;;;;;59.25;48.25;;;;;1.88;100.00;102601.56;5098124;27;45317;-77
2023/01/29 06:00:24;;;;;;;;;63.25;49.25;;;;;1.88;100.00;102599.81;5095667;27;46071;-77
2023/01/29 06:02:50;;;;;;;;;66.75;51.00;;;;;1.94;100.00;102601.28;5094401;27;46432;-77
2023/01/29 06:05:15;;;;;;;;;66.25;53.50;;;;;1.99;99.54;102606.31;5100259;27;45272;-77
2023/01/29 06:07:44;;;;;;;;;61.75;48.00;;;;;1.94;99.48;102605.72;5098617;27;45287;-77
2023/01/29 06:10:11;;;;;;;;;61.50;48.25;;;;;2.12;100.00;102603.97;5099915;27;45763;-77
2023/01/29 06:12:37;;;;;;;;;57.50;48.75;;;;;1.82;99.02;102589.59;5098685;27;46119;-77
2023/01/29 06:15:02;;;;;;;;;50.75;43.25;;;;;1.85;99.16;102602.56;5100192;27;45263;-77
2023/01/29 06:17:28;;;;;;;;;54.75;45.00;;;;;1.87;99.01;102608.59;5099624;27;45349;-78
2023/01/29 06:19:53;;;;;;;;;51.50;43.00;;;;;2.20;97.83;102606.22;5098771;27;45462;-77
2023/01/29 06:22:18;;;;;;;;;57.75;45.75;;;;;2.29;97.37;102618.94;5099399;27;45320;-77
2023/01/29 06:24:44;;;;;;;;;57.00;46.75;;;;;2.24;96.14;102620.91;5099899;27;45222;-78
2023/01/29 06:27:10;;;;;;;;;62.75;51.50;;;;;2.24;96.93;102620.91;5098476;27;45273;-78
2023/01/29 06:29:35;;;;;;;;;55.50;48.00;;;;;2.26;97.18;102621.69;5099781;27;45523;-78
2023/01/29 06:32:00;;;;;;;;;53.25;42.75;;;;;2.24;96.15;102621.75;5099578;27;46551;-77
2023/01/29 06:34:26;;;;;;;;;55.50;45.00;;;;;2.23;95.84;102632.34;5098619;27;45223;-78
2023/01/29 06:36:51;;;;;;;;;57.00;48.50;;;;;2.24;95.93;102636.66;5097350;27;45480;-78
2023/01/29 06:39:16;;;;;;;;;50.50;45.75;;;;;2.24;95.63;102629.63;5089889;27;45370;-79
2023/01/29 06:41:42;;;;;;;;;57.50;48.75;;;;;2.26;96.17;102640.06;5083346;27;46118;-79
2023/01/29 06:44:07;;;;;;;;;59.75;48.75;;;;;2.22;95.95;102631.47;5087563;27;45581;-78
2023/01/29 06:46:33;;;;;;;;;64.75;49.75;;;;;2.27;95.48;102633.88;5096455;27;45298;-77
2023/01/29 06:48:59;;;;;;;;;58.25;49.75;;;;;2.28;96.14;102635.59;5098232;27;47112;-77
2023/01/29 06:51:24;;;;;;;;;56.75;46.25;;;;;2.27;95.83;102629.50;5098948;27;45490;-77
2023/01/29 06:53:50;;;;;;;;;54.00;46.00;;;;;2.34;95.95;102637.06;5099523;27;45254;-78
2023/01/29 06:56:15;;;;;;;;;58.25;46.00;;;;;2.35;95.32;102637.00;5102290;27;45483;-77
2023/01/29 06:58:42;;;;;;;;;52.50;46.75;;;;;2.31;95.80;102632.84;5098106;27;46204;-78
2023/01/29 07:01:09;;;;;;;;;55.25;44.00;;;;;2.36;95.96;102649.19;5096759;27;48196;-78
2023/01/29 07:03:35;;;;;;;;;61.25;47.25;;;;;2.29;96.23;102639.91;5103096;27;45581;-78
2023/01/29 07:06:01;;;;;;;;;53.50;45.25;;;;;2.19;95.78;102647.38;5102299;27;45569;-79
2023/01/29 07:08:27;;;;;;;;;65.25;52.50;;;;;2.06;96.77;102643.63;5103147;27;45429;-79
2023/01/29 07:10:57;;;;;;;;;70.75;53.75;;;;;2.17;96.55;102646.59;5101091;27;47341;-79
2023/01/29 07:13:22;;;;;;;;;59.00;49.25;;;;;2.10;97.08;102632.91;5102797;27;45397;-79
2023/01/29 07:15:47;;;;;;;;;56.50;45.50;;;;;2.17;97.07;102646.59;5101196;27;45376;-78
2023/01/29 07:18:13;;;;;;;;;57.25;47.50;;;;;2.13;96.67;102632.75;5102996;27;45462;-78
2023/01/29 07:20:39;;;;;;;;;64.75;48.25;;;;;2.10;96.66;102627.66;5102150;27;45419;-78
2023/01/29 07:23:05;;;;;;;;;48.50;39.25;;;;;2.07;97.14;102619.94;5102101;27;45433;-78
2023/01/29 07:25:32;;;;;;;;;50.50;44.00;;;;;1.99;97.30;102629.94;5102633;27;45324;-79
2023/01/29 07:28:01;;;;;;;;;57.25;46.75;;;;;1.93;97.58;102628.44;5097988;27;47569;-78
2023/01/29 07:30:27;;;;;;;;;53.75;45.50;;;;;2.10;97.15;102626.81;5098075;27;45326;-78
2023/01/29 07:32:52;;;;;;;;;63.00;50.00;;;;;2.09;96.67;102625.97;5102794;27;45279;-78
2023/01/29 07:35:17;;;;;;;;;69.50;56.50;;;;;2.09;96.37;102628.59;5100412;27;45630;-78
2023/01/29 07:37:43;;;;;;;;;68.00;55.00;;;;;2.09;96.66;102632.97;5100690;27;47150;-78
2023/01/29 07:40:10;;;;;;;;;72.00;59.25;;;;;2.10;95.92;102632.06;5102074;27;45285;-77
2023/01/29 07:42:37;;;;;;;;;67.25;57.25;;;;;2.08;95.71;102639.16;5102421;27;45360;-79
2023/01/29 07:45:03;;;;;;;;;74.00;56.00;;;;;2.05;96.34;102634.91;5102178;27;45204;-78
2023/01/29 07:47:28;;;;;;;;;68.75;55.50;;;;;2.09;95.95;102638.22;5102493;27;45393;-78
2023/01/29 07:49:54;;;;;;;;;69.50;56.50;;;;;2.05;97.13;102641.91;5102147;27;46042;-78
2023/01/29 07:52:19;;;;;;;;;60.75;51.00;;;;;2.04;96.38;102645.47;5102576;27;45274;-78
2023/01/29 07:54:44;;;;;;;;;67.00;55.00;;;;;2.00;96.58;102639.50;5101624;27;45468;-80
2023/01/29 07:57:10;;;;;;;;;71.00;58.00;;;;;2.10;96.30;102650.44;5097687;27;46122;-80
2023/01/29 07:59:35;;;;;;;;;68.75;56.75;;;;;2.11;96.66;102658.22;5097407;27;46098;-80
2023/01/29 08:02:00;;;;;;;;;72.50;55.50;;;;;2.11;96.68;102649.50;5102474;27;45235;-78
2023/01/29 08:04:26;;;;;;;;;70.25;53.75;;;;;2.13;96.48;102651.13;5102056;27;45341;-79
2023/01/29 08:06:51;;;;;;;;;75.00;58.75;;;;;2.16;96.12;102649.28;5111086;27;45365;-78
2023/01/29 08:09:16;;;;;;;;;70.25;55.00;;;;;2.18;96.68;102644.84;5106478;27;46287;-78
2023/01/29 08:11:42;;;;;;;;;61.75;51.50;;;;;2.24;97.23;102655.00;5103112;27;45356;-79
2023/01/29 08:14:08;;;;;;;;;67.00;54.00;;;;;2.21;97.72;102644.69;5102639;27;45393;-78
2023/01/29 08:16:34;;;;;;;;;64.00;51.25;;;;;2.26;97.61;102646.16;5108073;27;45329;-79
2023/01/29 08:19:00;;;;;;;;;87.00;68.25;;;;;2.23;98.01;102640.19;5094511;27;45321;-78
2023/01/29 08:21:26;;;;;;;;;97.00;77.75;;;;;2.33;97.89;102640.63;5102763;27;46159;-79
2023/01/29 08:23:51;;;;;;;;;101.00;85.25;;;;;2.36;98.27;102643.09;5102461;27;45709;-79
2023/01/29 08:26:17;;;;;;;;;98.50;81.50;;;;;2.38;97.55;102641.25;5097763;27;46139;-79
2023/01/29 08:28:42;;;;;;;;;86.50;67.75;;;;;2.37;98.02;102637.75;5101284;27;46220;-79
2023/01/29 08:31:21;;;;;;;;;85.00;66.00;;;;;2.38;98.61;102636.88;5101482;27;45410;-80
2023/01/29 08:33:46;;;;;;;;;76.75;61.50;;;;;2.46;99.29;102638.25;5106026;27;45633;-79
2023/01/29 08:36:12;;;;;;;;;63.00;52.75;;;;;2.50;98.69;102643.31;5099395;27;45953;-79
2023/01/29 08:38:38;;;;;;;;;65.50;53.00;;;;;2.60;99.32;102638.44;5103949;27;46044;-79
2023/01/29 08:41:03;;;;;;;;;64.00;53.25;;;;;2.70;99.20;102632.75;5105057;27;45515;-80
2023/01/29 08:43:29;;;;;;;;;61.25;51.25;;;;;2.72;98.56;102636.16;5112716;27;45430;-79
2023/01/29 08:45:54;;;;;;;;;64.75;53.00;;;;;2.80;99.23;102643.63;5107047;27;46403;-80
2023/01/29 08:48:19;;;;;;;;;67.00;54.25;;;;;2.86;99.94;102654.69;5104918;27;45643;-79
2023/01/29 08:50:45;;;;;;;;;67.50;53.75;;;;;2.89;98.73;102654.56;5104022;27;46083;-81
2023/01/29 08:53:10;;;;;;;;;66.25;53.25;;;;;2.96;99.04;102660.34;5111825;27;45252;-81
2023/01/29 08:55:38;;;;;;;;;68.00;54.75;;;;;3.00;99.01;102666.31;5105232;27;45398;-81
2023/01/29 08:58:05;;;;;;;;;67.75;54.75;;;;;3.05;99.35;102666.91;5116219;27;47051;-80
2023/01/29 09:00:31;;;;;;;;;64.25;53.75;;;;;3.07;99.41;102678.19;5116338;27;45354;-81
2023/01/29 09:02:58;;;;;;;;;67.75;52.25;;;;;3.10;99.25;102693.81;5115306;27;44695;-83
2023/01/29 09:05:24;;;;;;;;;74.75;58.25;;;;;3.15;99.40;102690.97;5115384;27;45341;-81
2023/01/29 09:07:49;;;;;;;;;72.25;58.00;;;;;3.21;99.55;102679.28;5111986;27;47224;-81
2023/01/29 09:10:15;;;;;;;;;68.75;54.25;;;;;3.24;99.55;102681.75;5101065;27;45470;-81
2023/01/29 09:12:40;;;;;;;;;65.00;48.25;;;;;3.31;99.85;102685.75;5109844;27;45239;-80
2023/01/29 09:15:06;;;;;;;;;73.25;56.75;;;;;3.32;99.62;102681.38;5113773;27;45147;-81
2023/01/29 09:17:31;;;;;;;;;70.00;55.25;;;;;3.28;99.70;102681.53;5113019;27;47618;-80
2023/01/29 09:19:57;;;;;;;;;75.25;59.25;;;;;3.25;100.00;102675.56;5112524;27;45279;-80
2023/01/29 09:22:22;;;;;;;;;72.00;54.50;;;;;3.40;99.72;102694.97;5111517;27;45371;-79
2023/01/29 09:24:48;;;;;;;;;73.75;59.75;;;;;3.22;100.00;102688.84;5112935;27;45369;-80
2023/01/29 09:27:13;;;;;;;;;74.75;59.00;;;;;3.10;100.00;102691.19;5109381;27;47013;-80
2023/01/29 09:29:38;;;;;;;;;77.75;59.75;;;;;3.10;100.00;102675.41;5108591;27;45413;-79
2023/01/29 09:32:04;;;;;;;;;79.25;61.75;;;;;3.43;100.00;102671.16;5107447;27;44864;-79
2023/01/29 09:34:29;;;;;;;;;84.25;66.75;;;;;3.50;100.00;102661.19;5106622;27;45318;-81
2023/01/29 09:36:55;;;;;;;;;73.00;60.50;;;;;3.54;100.00;102660.06;5100221;27;47288;-78
2023/01/29 09:39:20;;;;;;;;;80.50;65.00;;;;;3.60;100.00;102661.53;5101830;27;45283;-78
2023/01/29 09:41:51;;;;;;;;;78.25;63.75;;;;;3.70;100.00;102667.13;5107197;27;45354;-79
2023/01/29 09:44:32;;;;;;;;;82.75;63.75;;;;;3.73;100.00;102670.47;5104869;27;47269;-79
2023/01/29 09:47:03;;;;;;;;;76.00;60.25;;;;;3.82;100.00;102684.06;5097607;27;45322;-79
2023/01/29 09:49:36;;;;;;;;;76.00;58.50;;;;;3.84;100.00;102674.31;5113000;27;44775;-79
2023/01/29 09:52:10;;;;;;;;;74.50;60.00;;;;;3.93;100.00;102676.44;5111203;27;45337;-79
2023/01/29 09:54:53;;;;;;;;;69.25;53.25;;;;;4.00;100.00;102682.22;5108643;27;46138;-80
2023/01/29 09:57:26;;;;;;;;;68.00;55.00;;;;;4.10;100.00;102683.41;5107926;27;45349;-80
2023/01/29 09:59:53;;;;;;;;;70.75;55.75;;;;;4.20;100.00;102689.06;5101800;27;45329;-80
2023/01/29 10:02:45;;;;;;;;;74.00;57.25;;;;;4.29;100.00;102685.88;5111567;27;45365;-80
2023/01/29 10:05:16;;;;;;;;;67.00;55.00;;;;;4.38;100.00;102686.31;5098333;27;46506;-80
2023/01/29 10:07:47;;;;;;;;;64.50;53.25;;;;;4.45;100.00;102686.81;5107470;27;47123;-81
2023/01/29 10:10:40;;;;;;;;;117.67;106.00;;;;;4.53;100.00;102682.00;5102100;27;45935;-81
2023/01/29 10:13:23;;;;;;;;;79.75;62.50;;;;;4.60;100.00;102685.09;5096254;27;45417;-80
2023/01/29 10:16:10;;;;;;;;;62.50;52.75;;;;;4.64;100.00;102678.75;5108979;27;45583;-80
2023/01/29 10:18:57;;;;;;;;;76.50;59.25;;;;;4.72;100.00;102681.78;5111324;27;45312;-80
2023/01/29 10:21:40;;;;;;;;;76.50;58.00;;;;;4.83;100.00;102675.06;5106082;27;45340;-79
2023/01/29 10:24:43;;;;;;;;;72.75;57.75;;;;;4.86;100.00;102675.75;5103427;27;45291;-78
2023/01/29 10:27:17;;;;;;;;;72.75;58.75;;;;;4.89;100.00;102664.16;5080063;27;46998;-83
2023/01/29 10:29:46;;;;;;;;;64.25;52.50;;;;;4.93;100.00;102661.28;5100391;27;47306;-83
2023/01/29 10:32:16;;;;;;;;;136.00;120.33;;;;;4.97;100.00;102656.66;5093473;27;45673;-81
2023/01/29 10:35:02;;;;;;;;;86.25;66.00;;;;;5.03;100.00;102660.72;5087804;27;45310;-82
2023/01/29 10:37:38;;;;;;;;;71.25;52.00;;;;;5.08;100.00;102640.22;5105067;27;45338;-82
2023/01/29 10:40:38;;;;;;;;;76.25;60.50;;;;;5.18;100.00;102637.91;5103499;27;47042;-82
2023/01/29 10:43:11;;;;;;;;;66.50;53.25;;;;;5.28;99.64;102627.63;5101442;27;45719;-81
2023/01/29 10:46:04;;;;;;;;;70.75;57.00;;;;;5.37;100.00;102621.81;5104415;27;45381;-82
2023/01/29 10:48:59;;;;;;;;;74.75;58.75;;;;;5.51;100.00;102630.66;5091660;27;46241;-79
2023/01/29 10:51:49;;;;;;;;;66.25;54.00;;;;;5.57;100.00;102627.66;5096347;27;46605;-80
2023/01/29 10:54:26;;;;;;;;;74.75;57.50;;;;;5.65;100.00;102632.44;5098928;27;45600;-82
2023/01/29 10:57:15;;;;;;;;;69.00;55.75;;;;;5.75;99.54;102632.72;5091935;27;45258;-83
2023/01/29 11:00:06;;;;;;;;;69.75;56.50;;;;;5.86;99.18;102624.97;5099238;27;47202;-80
2023/01/29 11:02:32;;;;;;;;;62.75;51.25;;;;;5.92;98.95;102615.81;5099294;27;45446;-80
2023/01/29 11:04:57;;;;;;;;;76.75;60.00;;;;;6.00;97.71;102618.84;5084367;27;45673;-79
2023/01/29 11:07:23;;;;;;;;;70.25;55.25;;;;;6.08;97.79;102614.88;5099701;27;45549;-80
2023/01/29 11:10:06;;;;;;;;;66.75;53.00;;;;;6.19;98.11;102607.09;5093972;27;45912;-79
2023/01/29 11:12:33;;;;;;;;;70.00;56.25;;;;;6.26;97.93;102613.69;5097790;27;46905;-81
2023/01/29 11:15:02;;;;;;;;;68.50;53.50;;;;;6.37;97.37;102614.81;5093720;27;45434;-81
2023/01/29 11:17:28;;;;;;;;;70.75;57.50;;;;;6.44;97.11;102605.53;5091480;27;45448;-82
2023/01/29 11:19:54;;;;;;;;;69.00;55.25;;;;;6.52;94.92;102605.84;5100190;27;45287;-83
2023/01/29 11:22:25;;;;;;;;;70.50;56.75;;;;;6.58;95.35;102596.66;5104331;27;45172;-84
2023/01/29 11:25:09;;;;;;;;;65.00;53.75;;;;;6.66;95.57;102602.31;5082495;27;45307;-83
2023/01/29 11:27:42;;;;;;;;;69.75;54.75;;;;;6.75;95.39;102598.19;5100460;27;46654;-82
2023/01/29 11:30:16;;;;;;;;;66.00;53.25;;;;;6.76;94.81;102591.97;5100324;27;45347;-80
2023/01/29 11:32:42;;;;;;;;;65.25;51.75;;;;;6.81;93.74;102589.00;5093482;27;47225;-78
2023/01/29 11:35:13;;;;;;;;;59.75;49.25;;;;;6.87;93.88;102585.97;5099983;27;45319;-82
2023/01/29 11:37:41;;;;;;;;;64.75;52.75;;;;;6.90;93.71;102580.47;5105915;27;45389;-83
2023/01/29 11:40:18;;;;;;;;;61.00;50.25;;;;;7.00;92.11;102588.59;5098816;27;45463;-79
2023/01/29 11:42:48;;;;;;;;;69.50;55.00;;;;;6.99;92.43;102573.69;5106196;27;47554;-83
2023/01/29 11:45:28;;;;;;;;;63.75;51.00;;;;;7.05;92.79;102580.34;5106572;27;45404;-84
2023/01/29 11:47:56;;;;;;;;;59.50;49.25;;;;;7.07;92.14;102576.66;5117838;27;44782;-82
2023/01/29 11:50:27;;;;;;;;;63.75;51.75;;;;;7.19;91.75;102582.88;5107919;27;47569;-86
2023/01/29 11:52:53;;;;;;;;;78.50;60.00;;;;;7.20;91.02;102574.03;5108724;27;45164;-82
2023/01/29 11:55:25;;;;;;;;;68.50;53.50;;;;;7.25;91.12;102575.50;5110355;27;45386;-83
2023/01/29 11:57:58;;;;;;;;;93.50;85.00;;;;;7.36;91.86;102577.41;5089271;27;45331;-83